Time;durP1;ratioP1;P1;durP2;ratioP2;P2;SDS_P1;SDS_P2;PMS_P1;PMS_P2;Temp;Humidity;BMP_temperature;BMP_pressure;BME280_temperature;BME280_humidity;BME280_pressure;Samples;Min_cycle;Max_cycle;Signal;HPM_P1;HPM_P2
2021/10/25 00:02:20;;;;;;;26.83;14.43;;;;;;;20.97;72.96;101615.19;5070293;28;20044;-66
2021/10/25 00:04:48;;;;;;;26.88;14.27;;;;;;;20.97;72.87;101621.44;5059207;28;20045;-67
2021/10/25 00:07:15;;;;;;;23.15;13.23;;;;;;;20.96;72.77;101613.41;5069431;28;20033;-67
2021/10/25 00:09:45;;;;;;;25.23;14.07;;;;;;;20.97;72.76;101625.94;5067049;28;20037;-67
2021/10/25 00:12:12;;;;;;;24.98;12.57;;;;;;;20.96;72.67;101618.78;5072461;28;20032;-67
2021/10/25 00:14:40;;;;;;;24.58;12.63;;;;;;;20.96;72.58;101621.47;5070565;28;20040;-67
2021/10/25 00:17:08;;;;;;;22.48;12.48;;;;;;;20.97;72.50;101625.94;5058714;28;20036;-67
2021/10/25 00:19:35;;;;;;;21.33;12.05;;;;;;;20.96;72.59;101624.16;5070895;28;20061;-67
2021/10/25 00:22:03;;;;;;;20.42;12.23;;;;;;;20.95;72.57;101617.88;5070224;28;20037;-67
2021/10/25 00:24:30;;;;;;;25.67;13.25;;;;;;;20.97;72.44;101616.09;5054993;28;20075;-67
2021/10/25 00:26:59;;;;;;;25.48;13.32;;;;;;;20.98;72.21;101617.88;5061984;28;20036;-67
2021/10/25 00:29:27;;;;;;;27.10;13.48;;;;;;;20.97;72.48;101624.13;5071673;28;20037;-67
2021/10/25 00:31:54;;;;;;;25.58;13.50;;;;;;;20.97;72.35;101620.56;5070770;28;20045;-67
2021/10/25 00:34:22;;;;;;;23.73;13.93;;;;;;;20.96;72.07;101618.78;5062894;28;20053;-67
2021/10/25 00:36:50;;;;;;;28.60;13.65;;;;;;;20.97;72.02;101624.13;5061645;28;20052;-67
2021/10/25 00:39:18;;;;;;;28.17;14.32;;;;;;;20.98;71.99;101633.09;5072516;28;20511;-67
2021/10/25 00:41:46;;;;;;;21.58;12.98;;;;;;;20.96;71.74;101634.88;5070136;28;20504;-67
2021/10/25 00:44:15;;;;;;;24.20;13.68;;;;;;;20.96;71.71;101633.09;5070968;28;20481;-66
2021/10/25 00:46:42;;;;;;;26.58;13.75;;;;;;;20.97;71.73;101634.88;5064653;28;20044;-67
2021/10/25 00:49:10;;;;;;;25.63;13.18;;;;;;;20.97;71.56;101640.25;5072082;28;20052;-67
2021/10/25 00:51:37;;;;;;;24.45;13.95;;;;;;;20.98;71.48;101636.66;5066182;28;20037;-67
2021/10/25 00:54:05;;;;;;;27.33;13.70;;;;;;;20.98;71.68;101633.97;5051954;28;20504;-67
2021/10/25 00:56:34;;;;;;;25.60;14.05;;;;;;;20.98;71.57;101631.28;5051805;28;20041;-67
2021/10/25 00:59:01;;;;;;;24.90;13.50;;;;;;;20.97;71.50;101624.13;5051985;28;20420;-67
2021/10/25 01:01:31;;;;;;;24.23;12.93;;;;;;;21.01;71.56;101624.97;5052329;28;20041;-67
2021/10/25 01:03:58;;;;;;;23.38;14.05;;;;;;;21.00;71.71;101625.91;5068287;28;20055;-67
2021/10/25 01:06:26;;;;;;;23.77;13.73;;;;;;;21.01;71.69;101625.88;5069729;28;20044;-67
2021/10/25 01:08:55;;;;;;;21.85;13.43;;;;;;;21.04;71.65;101641.06;5054058;28;20040;-66
2021/10/25 01:11:23;;;;;;;25.23;14.63;;;;;;;21.04;71.36;101643.75;5071377;28;20039;-67
2021/10/25 01:13:51;;;;;;;24.08;15.05;;;;;;;21.04;71.35;101643.75;5070664;28;20063;-67
2021/10/25 01:16:19;;;;;;;26.75;13.75;;;;;;;21.03;71.02;101636.59;5056795;28;20400;-67
2021/10/25 01:18:49;;;;;;;21.65;12.57;;;;;;;21.05;70.75;101634.78;5069725;28;20036;-67
2021/10/25 01:21:18;;;;;;;28.13;14.48;;;;;;;21.04;70.64;101635.69;5065273;28;20100;-66
2021/10/25 01:23:46;;;;;;;25.35;14.35;;;;;;;21.03;70.61;101632.09;5052487;28;20034;-67
2021/10/25 01:26:14;;;;;;;22.25;13.77;;;;;;;21.03;70.41;101636.59;5055966;28;20563;-66
2021/10/25 01:28:42;;;;;;;28.08;14.27;;;;;;;21.02;70.47;101641.06;5069784;28;20036;-66
2021/10/25 01:31:09;;;;;;;24.48;13.77;;;;;;;21.03;70.41;101633.91;5071678;28;20040;-67
2021/10/25 01:33:39;;;;;;;25.13;13.88;;;;;;;21.03;70.66;101617.78;5062846;28;20120;-67
2021/10/25 01:36:06;;;;;;;26.42;13.70;;;;;;;21.03;70.71;101615.09;5052246;28;20037;-67
2021/10/25 01:38:35;;;;;;;22.33;13.05;;;;;;;21.02;70.50;101614.22;5056160;28;20048;-66
2021/10/25 01:41:03;;;;;;;22.58;14.43;;;;;;;21.02;70.41;101610.63;5070764;28;20496;-67
2021/10/25 01:43:30;;;;;;;22.15;13.15;;;;;;;21.01;69.68;101607.06;5059620;28;20037;-67
2021/10/25 01:45:58;;;;;;;19.83;12.52;;;;;;;21.01;69.18;101611.53;5050688;28;20064;-67
2021/10/25 01:48:26;;;;;;;22.05;13.48;;;;;;;21.01;69.32;101608.84;5050402;28;20039;-67
2021/10/25 01:50:53;;;;;;;22.98;12.57;;;;;;;20.99;68.96;101608.00;5052102;28;20033;-67
2021/10/25 01:53:21;;;;;;;24.00;12.80;;;;;;;20.99;68.78;101619.66;5050954;28;20041;-66
2021/10/25 01:55:53;;;;;;;21.60;12.40;;;;;;;21.00;68.53;101625.91;5050862;28;20048;-67
2021/10/25 01:58:20;;;;;;;26.45;13.20;;;;;;;21.00;68.56;101617.84;5060563;28;20445;-66
2021/10/25 02:00:48;;;;;;;23.50;13.48;;;;;;;21.02;68.31;101613.31;5060833;28;20055;-67
2021/10/25 02:03:16;;;;;;;22.88;12.70;;;;;;;21.03;68.64;101617.78;5056296;28;20052;-67
2021/10/25 02:05:43;;;;;;;25.23;12.70;;;;;;;21.03;68.78;101607.94;5068859;28;20041;-67
2021/10/25 02:08:11;;;;;;;23.67;12.68;;;;;;;21.04;68.92;101619.56;5070053;28;20067;-67
2021/10/25 02:10:39;;;;;;;24.45;12.80;;;;;;;21.05;69.01;101610.63;5063968;28;20041;-66
2021/10/25 02:13:11;;;;;;;23.38;13.10;;;;;;;21.06;69.00;101598.97;5069312;28;20040;-66
2021/10/25 02:15:39;;;;;;;23.17;12.82;;;;;;;21.05;69.19;101605.25;5067288;28;20032;-67
2021/10/25 02:18:07;;;;;;;24.23;13.02;;;;;;;21.06;69.12;101598.97;5041692;28;20043;-67
2021/10/25 02:20:34;;;;;;;20.58;12.27;;;;;;;21.05;69.28;101594.50;5071020;28;20059;-67
2021/10/25 02:23:02;;;;;;;22.35;11.75;;;;;;;21.04;69.19;101593.59;5069898;28;20404;-66
2021/10/25 02:25:29;;;;;;;17.80;11.50;;;;;;;21.03;69.32;101599.88;5070212;28;20036;-66
2021/10/25 02:27:56;;;;;;;21.25;11.52;;;;;;;21.02;69.52;101592.72;5066502;28;20051;-67
2021/10/25 02:30:27;;;;;;;24.02;12.60;;;;;;;21.04;69.42;101595.41;5069238;28;20067;-67
2021/10/25 02:32:54;;;;;;;23.40;11.65;;;;;;;21.01;69.59;101596.31;5070477;28;20048;-67
2021/10/25 02:35:22;;;;;;;17.90;11.75;;;;;;;20.99;69.29;101594.59;5052651;28;20053;-67
2021/10/25 02:37:49;;;;;;;24.08;11.48;;;;;;;20.99;69.31;101597.28;5068836;28;20039;-67
2021/10/25 02:40:17;;;;;;;17.35;11.35;;;;;;;20.98;68.81;101596.38;5069430;28;20043;-67
2021/10/25 02:42:45;;;;;;;21.85;13.13;;;;;;;20.99;68.71;101606.22;5068518;28;20044;-67
2021/10/25 02:45:12;;;;;;;22.45;11.70;;;;;;;20.98;68.62;101601.75;5066700;28;20049;-67
2021/10/25 02:47:41;;;;;;;20.13;11.38;;;;;;;20.99;68.47;101599.97;5065191;28;20404;-67
2021/10/25 02:50:10;;;;;;;20.27;11.02;;;;;;;20.98;68.92;101600.88;5049683;28;20127;-67
2021/10/25 02:52:37;;;;;;;19.67;10.02;;;;;;;20.95;68.83;101615.22;5053542;28;20041;-67
2021/10/25 02:55:05;;;;;;;19.23;9.77;;;;;;;20.93;68.96;101613.47;5067860;28;20041;-67
2021/10/25 02:57:33;;;;;;;17.67;9.30;;;;;;;20.90;69.11;101614.38;5069510;28;20040;-66
2021/10/25 03:00:01;;;;;;;20.23;9.68;;;;;;;20.90;68.79;101621.53;5065543;28;20043;-67
2021/10/25 03:02:28;;;;;;;18.70;9.23;;;;;;;20.89;68.78;101619.75;5067765;28;20395;-66
2021/10/25 03:04:57;;;;;;;15.90;8.27;;;;;;;20.88;68.33;101621.56;5058951;28;20116;-66
2021/10/25 03:07:25;;;;;;;17.65;9.23;;;;;;;20.87;68.01;101613.56;5050236;28;20041;-67
2021/10/25 03:09:52;;;;;;;18.73;9.40;;;;;;;20.84;67.45;101608.22;5051297;28;20049;-67
2021/10/25 03:12:20;;;;;;;16.58;7.32;;;;;;;20.83;67.43;101617.16;5051067;28;20029;-66
2021/10/25 03:14:48;;;;;;;14.93;7.53;;;;;;;20.82;67.00;101612.69;5054691;28;20040;-66
2021/10/25 03:17:16;;;;;;;19.10;7.97;;;;;;;20.83;66.67;101618.06;5056423;28;20030;-67
2021/10/25 03:19:44;;;;;;;17.58;7.35;;;;;;;20.82;66.69;101610.00;5051780;28;20045;-66
2021/10/25 03:22:13;;;;;;;14.43;7.00;;;;;;;20.80;66.82;101610.06;5050956;28;20033;-66
2021/10/25 03:24:41;;;;;;;13.80;6.60;;;;;;;20.79;66.95;101613.66;5059114;28;20040;-67
2021/10/25 03:27:09;;;;;;;14.80;6.40;;;;;;;20.76;67.31;101611.00;5061302;28;20039;-66
2021/10/25 03:29:36;;;;;;;15.23;5.78;;;;;;;20.72;67.40;101614.63;5054864;28;20051;-66
2021/10/25 03:32:04;;;;;;;19.40;5.93;;;;;;;20.73;67.52;101612.84;5053383;28;20037;-67
2021/10/25 03:34:32;;;;;;;15.27;5.90;;;;;;;20.72;67.72;101611.94;5053718;28;20104;-66
2021/10/25 03:36:59;;;;;;;18.02;6.68;;;;;;;20.70;67.90;101611.06;5055011;28;20041;-66
2021/10/25 03:39:32;;;;;;;16.25;6.15;;;;;;;20.69;68.09;101606.59;5055998;28;20037;-66
2021/10/25 03:42:01;;;;;;;17.75;5.85;;;;;;;20.66;68.29;101612.91;5053300;28;20162;-66
2021/10/25 03:44:33;;;;;;;14.23;5.90;;;;;;;20.64;68.70;101608.47;5053568;28;20045;-66
2021/10/25 03:47:04;;;;;;;15.57;5.35;;;;;;;20.63;68.79;101618.31;5063306;28;20037;-67
2021/10/25 03:49:36;;;;;;;16.80;5.30;;;;;;;20.60;68.51;101604.94;5060552;28;20045;-66
2021/10/25 03:52:11;;;;;;;13.68;5.38;;;;;;;20.58;68.80;101617.47;5067453;28;20428;-67
2021/10/25 03:54:43;;;;;;;16.00;5.72;;;;;;;20.55;68.69;101612.13;5055681;28;20047;-67
2021/10/25 04:25:13;;;;;;;14.63;4.95;;;;;;;20.44;69.03;101623.91;5057374;28;20513;-66
2021/10/25 04:27:47;;;;;;;14.50;4.43;;;;;;;20.32;69.53;101624.91;5047585;28;20496;-66
2021/10/25 04:30:16;;;;;;;17.92;4.93;;;;;;;20.32;69.56;101632.06;5049016;28;20045;-67
2021/10/25 04:32:43;;;;;;;20.58;4.53;;;;;;;20.30;69.73;101643.69;5037226;28;20497;-67
2021/10/25 04:35:12;;;;;;;22.48;5.47;;;;;;;20.34;69.63;101641.91;5032288;28;20037;-66
2021/10/25 04:37:39;;;;;;;15.02;5.32;;;;;;;20.35;69.96;101635.59;5052335;28;20041;-67
2021/10/25 04:40:09;;;;;;;14.57;4.90;;;;;;;20.36;69.98;101645.44;5051431;28;20436;-67
2021/10/25 04:42:36;;;;;;;12.00;4.30;;;;;;;20.33;70.08;101653.53;5046729;28;20090;-67
2021/10/25 04:45:07;;;;;;;15.55;4.40;;;;;;;20.33;70.20;101653.53;5042626;28;20049;-66
2021/10/25 04:47:34;;;;;;;14.95;3.92;;;;;;;20.31;69.87;101660.66;5029689;28;20038;-66
2021/10/25 04:50:02;;;;;;;16.30;4.13;;;;;;;20.32;69.54;101665.13;5032538;28;20037;-67
2021/10/25 04:52:29;;;;;;;18.75;4.72;;;;;;;20.35;69.38;101674.97;5038226;28;20052;-66
2021/10/25 04:54:57;;;;;;;14.27;4.65;;;;;;;20.37;69.47;101668.69;5034649;28;20060;-67
2021/10/25 04:57:24;;;;;;;15.32;4.10;;;;;;;20.40;69.27;101682.06;5039383;28;20049;-66
2021/10/25 04:59:52;;;;;;;14.55;3.60;;;;;;;20.45;69.32;101680.22;5025059;28;20047;-67
2021/10/25 05:02:21;;;;;;;20.38;4.50;;;;;;;20.50;69.44;101682.84;5038669;28;20041;-66
2021/10/25 05:04:48;;;;;;;14.48;3.70;;;;;;;20.53;69.49;101682.84;5040074;28;20042;-66
2021/10/25 05:07:16;;;;;;;11.63;3.63;;;;;;;20.60;69.15;101689.91;5037702;28;20055;-66
2021/10/25 05:09:44;;;;;;;17.23;3.72;;;;;;;20.62;68.83;101683.59;5039516;28;20486;-66
2021/10/25 05:12:13;;;;;;;12.75;3.22;;;;;;;20.66;68.66;101681.78;5019786;28;20042;-67
2021/10/25 05:14:41;;;;;;;15.90;3.95;;;;;;;20.65;68.54;101688.06;5039976;28;20087;-66
2021/10/25 05:17:08;;;;;;;13.90;3.22;;;;;;;20.69;68.41;101692.47;5030887;28;20038;-67
2021/10/25 05:19:37;;;;;;;13.07;3.40;;;;;;;20.76;68.08;101701.34;5031678;28;20037;-67
2021/10/25 05:22:06;;;;;;;16.90;3.60;;;;;;;20.80;67.88;101695.97;5034253;28;20505;-67
2021/10/25 05:24:34;;;;;;;18.73;3.80;;;;;;;20.85;67.93;101685.16;5037741;28;20037;-66
2021/10/25 05:27:02;;;;;;;18.85;4.10;;;;;;;20.90;67.91;101694.03;5030387;28;20034;-66
2021/10/25 05:29:29;;;;;;;13.15;4.10;;;;;;;20.95;67.73;101700.22;5050278;28;20037;-67
2021/10/25 05:31:57;;;;;;;22.10;4.13;;;;;;;21.00;67.56;101691.19;5049987;28;20041;-66
2021/10/25 05:34:24;;;;;;;19.33;5.03;;;;;;;21.01;67.20;101692.09;5045871;28;20043;-66
2021/10/25 05:36:53;;;;;;;10.90;3.63;;;;;;;21.03;66.98;101699.25;5050208;28;20040;-66
2021/10/25 05:39:20;;;;;;;13.65;4.00;;;;;;;21.02;67.07;101704.63;5046014;28;20040;-66
2021/10/25 05:41:48;;;;;;;14.63;3.78;;;;;;;20.99;67.43;101712.72;5044293;28;20041;-67
2021/10/25 05:44:16;;;;;;;15.38;4.05;;;;;;;21.00;67.48;101717.19;5037059;28;20056;-67
2021/10/25 05:46:43;;;;;;;16.80;4.13;;;;;;;21.03;67.41;101719.81;5065122;28;20036;-66
2021/10/25 05:49:11;;;;;;;11.90;3.35;;;;;;;21.01;67.34;101718.94;5070683;28;20047;-66
2021/10/25 05:51:40;;;;;;;10.82;3.22;;;;;;;20.99;67.62;101715.41;5052365;28;20114;-67
2021/10/25 05:54:09;;;;;;;18.67;3.65;;;;;;;20.98;67.50;101714.53;5069354;28;20431;-67
2021/10/25 05:56:37;;;;;;;13.32;3.90;;;;;;;21.01;67.60;101710.88;5050943;28;20508;-67
2021/10/25 05:59:05;;;;;;;15.10;4.65;;;;;;;21.02;67.42;101710.88;5043671;28;20114;-67
2021/10/25 06:01:39;;;;;;;15.57;3.72;;;;;;;21.02;67.38;101718.94;5046775;28;20131;-66
2021/10/25 06:04:09;;;;;;;13.75;3.53;;;;;;;21.02;67.13;101720.72;5068110;28;20119;-67
2021/10/25 06:06:37;;;;;;;14.35;3.30;;;;;;;21.04;67.23;101713.56;5069706;28;20040;-66
2021/10/25 06:09:05;;;;;;;13.60;3.80;;;;;;;21.08;67.40;101715.28;5064443;28;20043;-66
2021/10/25 06:11:35;;;;;;;8.77;3.22;;;;;;;21.16;67.47;101715.22;5065993;28;20051;-65
2021/10/25 06:14:05;;;;;;;14.13;3.55;;;;;;;21.24;67.66;101714.22;5069722;28;20484;-66
2021/10/25 06:19:17;;;;;;;13.70;3.80;;;;;;;21.42;67.51;101710.41;5061579;28;20037;-66
2021/10/25 06:21:45;;;;;;;15.68;3.65;;;;;;;21.52;67.51;101717.44;5050082;28;20064;-66
2021/10/25 06:24:13;;;;;;;12.27;3.50;;;;;;;21.53;67.02;101721.00;5051902;28;21738;-66
2021/10/25 06:26:42;;;;;;;19.35;3.85;;;;;;;21.46;66.77;101717.53;5059315;28;20033;-67
2021/10/25 06:29:10;;;;;;;12.52;3.63;;;;;;;21.40;66.40;101726.53;5067982;28;20041;-67
2021/10/25 06:31:37;;;;;;;12.25;3.25;;;;;;;21.35;66.19;101730.19;5064912;28;20043;-67
2021/10/25 06:34:08;;;;;;;11.77;3.88;;;;;;;21.31;66.32;101741.91;5055412;28;20044;-66
2021/10/25 06:36:37;;;;;;;13.20;3.55;;;;;;;21.28;66.20;101747.31;5064811;28;20040;-66
2021/10/25 06:39:12;;;;;;;13.52;3.88;;;;;;;21.26;66.18;101751.81;5055158;28;20045;-67
2021/10/25 06:41:39;;;;;;;17.02;5.13;;;;;;;21.31;66.07;101745.47;5050024;28;20029;-67
2021/10/25 06:44:08;;;;;;;18.13;7.00;;;;;;;21.39;66.24;101742.69;5057270;28;20050;-67
2021/10/25 06:46:39;;;;;;;16.27;5.35;;;;;;;21.57;66.01;101746.94;5064386;28;20053;-67
2021/10/25 06:49:07;;;;;;;16.85;4.75;;;;;;;21.76;65.66;101745.75;5054139;28;20451;-67
2021/10/25 06:51:34;;;;;;;31.77;10.75;;;;;;;21.96;65.12;101749.06;5060139;28;20400;-67
2021/10/25 06:54:02;;;;;;;27.80;9.70;;;;;;;22.41;65.27;101749.22;5055746;28;20818;-66
2021/10/25 06:56:30;;;;;;;19.30;6.10;;;;;;;22.93;64.75;101755.44;5047142;28;20412;-67
2021/10/25 06:58:57;;;;;;;14.18;4.35;;;;;;;23.38;63.79;101755.41;5062430;28;20041;-66
2021/10/25 07:01:26;;;;;;;16.73;3.50;;;;;;;23.77;63.08;101743.78;5056481;28;20052;-66
2021/10/25 07:03:54;;;;;;;13.70;3.58;;;;;;;24.09;61.83;101748.41;5058447;28;20060;-67
2021/10/25 07:06:22;;;;;;;15.85;5.03;;;;;;;24.35;60.39;101747.78;5058790;28;20120;-67
2021/10/25 07:08:52;;;;;;;15.13;4.50;;;;;;;24.62;59.58;101738.06;5058463;28;20591;-67
2021/10/25 07:11:19;;;;;;;14.48;4.13;;;;;;;24.74;58.93;101731.47;5054727;28;20043;-67
2021/10/25 07:13:48;;;;;;;13.20;3.42;;;;;;;24.87;58.45;101728.41;5057707;28;20087;-67
2021/10/25 07:16:20;;;;;;;16.23;3.47;;;;;;;24.64;57.18;101730.84;5052519;28;20049;-67
2021/10/25 07:19:03;;;;;;;19.48;4.22;;;;;;;24.27;57.62;101733.63;5057909;28;20158;-67
2021/10/25 07:21:46;;;;;;;10.27;2.58;;;;;;;24.06;57.58;101732.31;5051565;28;20044;-67
2021/10/25 08:03:12;;;;;;;12.13;3.47;;;;;;;25.99;50.97;101731.34;5044132;28;20033;-68
2021/10/25 08:05:54;;;;;;;12.68;3.90;;;;;;;26.14;50.46;101736.25;5062552;28;20051;-67
2021/10/25 08:08:32;;;;;;;15.57;3.75;;;;;;;26.30;49.72;101733.97;5052163;28;21836;-68
2021/10/25 08:11:02;;;;;;;13.75;3.55;;;;;;;26.48;49.51;101720.66;5051662;28;20041;-68
2021/10/25 08:13:34;;;;;;;13.57;3.67;;;;;;;26.68;49.51;101721.78;5062865;28;20061;-67
2021/10/25 08:16:09;;;;;;;8.77;2.20;;;;;;;26.63;48.46;101721.94;5064317;28;20037;-68
2021/10/25 08:18:53;;;;;;;7.88;2.28;;;;;;;26.27;47.99;101723.22;5044700;28;20047;-67
2021/10/25 08:21:22;;;;;;;11.02;2.30;;;;;;;26.17;47.46;101728.03;5049218;28;20044;-67
2021/10/25 08:23:52;;;;;;;7.88;2.17;;;;;;;26.30;47.12;101728.53;5039581;28;20041;-66
2021/10/25 08:26:19;;;;;;;11.77;2.35;;;;;;;26.30;46.88;101734.84;5031807;28;20041;-67
2021/10/25 08:28:47;;;;;;;10.00;1.85;;;;;;;26.33;46.25;101733.84;5034416;28;20044;-67
2021/10/25 08:31:16;;;;;;;10.32;2.38;;;;;;;26.36;46.66;101740.03;5045701;28;20040;-66
2021/10/25 08:39:46;;;;;;;8.05;2.55;;;;;;;26.39;46.13;101752.56;5039362;28;20045;-67
2021/10/25 08:42:11;;;;;;;8.93;2.58;;;;;;;25.94;46.23;101754.97;5057495;28;20056;-66
2021/10/25 08:44:39;;;;;;;14.27;2.20;;;;;;;25.78;46.65;101751.88;5066822;28;20113;-66
2021/10/25 08:47:07;;;;;;;11.07;2.13;;;;;;;25.90;46.81;101756.00;5068529;28;20050;-66
2021/10/25 08:49:35;;;;;;;9.15;2.10;;;;;;;25.94;46.48;101750.44;5066699;28;20708;-66
2021/10/25 08:52:02;;;;;;;15.48;2.67;;;;;;;25.87;46.65;101751.56;5068173;28;20041;-66
2021/10/25 08:54:32;;;;;;;13.25;3.03;;;;;;;25.81;46.66;101749.06;5065995;28;20523;-66
2021/10/25 08:57:01;;;;;;;12.05;2.55;;;;;;;25.72;45.92;101746.66;5069763;28;20115;-66
2021/10/25 08:59:30;;;;;;;8.90;1.98;;;;;;;25.67;45.06;101754.91;5064458;28;20044;-66
2021/10/25 09:02:08;;;;;;;11.90;2.35;;;;;;;25.79;45.19;101757.25;5070752;28;20098;-67
2021/10/25 09:04:36;;;;;;;6.10;1.70;;;;;;;25.81;44.10;101751.75;5062359;28;20828;-66
2021/10/25 09:07:04;;;;;;;9.23;2.40;;;;;;;25.84;43.57;101745.38;5066334;28;20047;-67
2021/10/25 09:09:33;;;;;;;11.15;2.47;;;;;;;25.89;44.03;101760.53;5071108;28;20058;-67
2021/10/25 09:12:04;;;;;;;7.68;2.42;;;;;;;26.10;44.22;101767.97;5067612;28;20055;-66
2021/10/25 09:14:33;;;;;;;10.25;2.70;;;;;;;26.16;44.69;101764.16;5062766;28;20420;-66
2021/10/25 09:17:04;;;;;;;13.95;2.70;;;;;;;26.11;44.88;101763.44;5063120;28;20123;-66
2021/10/25 09:19:32;;;;;;;10.02;2.50;;;;;;;25.89;45.35;101768.66;5057194;28;20488;-66
2021/10/25 09:22:08;;;;;;;9.55;2.78;;;;;;;25.58;45.91;101762.44;5069204;28;20055;-65
2021/10/25 09:24:38;;;;;;;11.52;2.60;;;;;;;25.21;46.77;101752.66;5049419;28;20041;-65
2021/10/25 09:27:09;;;;;;;12.13;2.92;;;;;;;25.06;46.99;101761.22;5059139;28;20629;-66
2021/10/25 09:29:40;;;;;;;12.90;2.75;;;;;;;25.10;47.31;101768.31;5068908;28;20064;-65
2021/10/25 09:32:12;;;;;;;11.52;2.60;;;;;;;25.02;47.41;101779.31;5065893;28;20036;-65
2021/10/25 09:34:46;;;;;;;9.88;2.28;;;;;;;25.04;47.50;101773.88;5065590;28;20040;-65
2021/10/25 09:37:16;;;;;;;13.15;2.40;;;;;;;24.99;46.86;101775.84;5062434;28;20044;-65
2021/10/25 09:39:51;;;;;;;13.88;2.40;;;;;;;24.81;47.09;101781.72;5063610;28;20032;-65
2021/10/25 09:50:43;;;;;;;12.98;3.00;;;;;;;24.15;48.36;101777.97;5040011;28;20045;-65
2021/10/25 09:53:11;;;;;;;16.58;2.95;;;;;;;24.37;48.85;101762.16;5040401;28;20041;-65
2021/10/25 09:55:46;;;;;;;10.85;2.83;;;;;;;24.53;48.85;101768.94;5041623;28;20112;-65
2021/10/25 09:58:21;;;;;;;12.50;2.42;;;;;;;24.60;49.16;101757.06;5035525;28;20036;-65
2021/10/25 10:00:48;;;;;;;14.82;2.72;;;;;;;24.75;48.66;101754.84;5049534;28;20135;-65
2021/10/25 10:03:16;;;;;;;11.07;2.55;;;;;;;24.87;47.93;101757.22;5049781;28;20043;-65
2021/10/25 10:05:44;;;;;;;12.93;2.85;;;;;;;24.95;47.08;101766.03;5039901;28;20438;-66
2021/10/25 10:08:12;;;;;;;13.43;2.30;;;;;;;25.09;46.97;101747.59;5041139;28;20159;-65
2021/10/25 10:10:41;;;;;;;10.25;2.50;;;;;;;25.29;47.38;101753.31;5040527;28;20845;-66
2021/10/25 10:13:12;;;;;;;13.32;2.47;;;;;;;25.56;47.08;101756.13;5047794;28;20040;-65
2021/10/25 10:15:42;;;;;;;12.73;2.45;;;;;;;25.74;47.07;101751.06;5047656;28;20041;-66
2021/10/25 10:18:16;;;;;;;15.63;2.88;;;;;;;25.79;46.53;101751.84;5041826;28;20091;-66
2021/10/25 10:20:44;;;;;;;;;;;;;;;25.52;46.13;101754.47;5035852;28;20052;-65
2021/10/25 10:23:16;;;;;;;10.10;2.20;;;;;;;25.39;46.20;101752.13;5049726;28;19920;-65
2021/10/25 10:25:51;;;;;;;10.23;2.78;;;;;;;25.41;46.22;101739.44;5031779;28;20079;-65
2021/10/25 10:28:32;;;;;;;10.52;2.40;;;;;;;25.24;46.15;101744.47;5047034;28;20033;-65
2021/10/25 10:31:04;;;;;;;12.07;2.67;;;;;;;25.01;46.22;101752.34;5066980;28;20043;-65
2021/10/25 10:33:33;;;;;;;13.00;2.85;;;;;;;24.74;46.19;101739.59;5066739;28;20037;-65
2021/10/25 10:36:14;;;;;;;7.75;2.35;;;;;;;24.60;46.07;101732.75;5062206;28;20055;-65
2021/10/25 10:38:49;;;;;;;11.80;2.30;;;;;;;24.51;46.40;101746.47;5070050;28;20492;-65
2021/10/25 10:41:19;;;;;;;9.90;2.03;;;;;;;24.47;46.82;101747.50;5068786;28;20052;-65
2021/10/25 10:44:12;;;;;;;11.50;2.80;;;;;;;24.47;47.15;101728.59;5069203;28;20437;-65
2021/10/25 10:46:45;;;;;;;8.93;2.60;;;;;;;24.52;47.08;101725.75;5053021;28;20052;-66
2021/10/25 10:49:29;;;;;;;12.32;2.20;;;;;;;24.72;46.85;101720.72;5072684;28;20096;-66
2021/10/25 10:52:18;;;;;;;11.00;2.42;;;;;;;24.74;46.56;101723.38;5057463;28;20132;-65
2021/10/25 10:54:57;;;;;;;11.63;2.25;;;;;;;24.63;46.35;101734.47;5049147;28;20503;-66
2021/10/25 11:00:21;;;;;;;8.95;2.50;;;;;;;24.53;46.09;101730.25;5068531;28;20178;-66
2021/10/25 11:02:54;;;;;;;9.18;2.20;;;;;;;24.44;46.02;101716.97;5065928;28;20032;-65
2021/10/25 11:05:36;;;;;;;6.93;2.33;;;;;;;24.42;46.26;101722.41;5072760;28;20033;-65
2021/10/25 11:08:07;;;;;;;11.40;2.25;;;;;;;24.35;45.94;101730.72;5072468;28;20045;-65
2021/10/25 11:10:37;;;;;;;6.55;2.00;;;;;;;24.32;45.90;101725.41;5066623;28;20041;-65
2021/10/25 11:13:08;;;;;;;8.05;2.10;;;;;;;24.29;45.59;101729.06;5072868;28;20391;-65
2021/10/25 11:15:41;;;;;;;8.50;2.08;;;;;;;24.18;45.59;101721.19;5071349;28;20047;-65
2021/10/25 11:18:08;;;;;;;12.03;2.70;;;;;;;24.15;45.77;101725.81;5072659;28;20418;-66
2021/10/25 11:20:36;;;;;;;6.78;1.85;;;;;;;24.20;45.65;101723.91;5073282;28;20036;-65
2021/10/25 11:23:06;;;;;;;11.38;2.50;;;;;;;24.29;45.73;101726.34;5072307;28;20044;-66
2021/10/25 11:25:45;;;;;;;12.57;2.10;;;;;;;24.43;45.84;101712.50;5073049;28;20041;-65
2021/10/25 11:28:14;;;;;;;5.82;2.10;;;;;;;24.52;45.68;101721.25;5071893;28;20090;-66
2021/10/25 11:30:44;;;;;;;10.45;2.83;;;;;;;24.60;45.67;101712.94;5049594;28;20041;-66
2021/10/25 11:33:11;;;;;;;9.73;2.53;;;;;;;24.72;45.72;101719.81;5066218;28;20086;-65
2021/10/25 11:35:47;;;;;;;9.75;2.85;;;;;;;24.79;45.50;101716.03;5069728;28;20041;-65
2021/10/25 11:38:15;;;;;;;10.13;2.08;;;;;;;24.75;45.47;101717.91;5071246;28;20036;-65
2021/10/25 11:40:43;;;;;;;7.90;1.90;;;;;;;24.78;45.46;101725.06;5068993;28;20041;-66
2021/10/25 11:43:10;;;;;;;7.22;1.90;;;;;;;24.71;45.66;101710.84;5067919;28;20049;-65
2021/10/25 11:45:38;;;;;;;8.77;2.08;;;;;;;24.65;46.04;101715.50;5049419;28;20044;-65
2021/10/25 11:48:08;;;;;;;12.13;2.78;;;;;;;24.48;46.13;101708.75;5059918;28;20029;-65
2021/10/25 11:50:37;;;;;;;10.38;2.60;;;;;;;24.35;46.09;101707.28;5064514;28;20040;-65
2021/10/25 11:53:07;;;;;;;14.45;3.50;;;;;;;24.26;46.11;101712.94;5068610;28;20043;-66
2021/10/25 11:55:37;;;;;;;15.40;2.65;;;;;;;24.12;46.14;101717.78;5068519;28;20040;-66
2021/10/25 11:58:06;;;;;;;6.80;2.30;;;;;;;23.95;46.28;101717.31;5069098;28;20039;-65
2021/10/25 12:00:38;;;;;;;8.85;2.25;;;;;;;23.80;46.70;101713.16;5070553;28;20565;-65
2021/10/25 12:03:11;;;;;;;13.05;2.67;;;;;;;23.82;47.17;101703.25;5067305;28;20044;-66
2021/10/25 12:05:40;;;;;;;11.10;3.03;;;;;;;23.85;47.45;101705.84;5052329;28;20037;-65
2021/10/25 12:08:09;;;;;;;9.60;2.20;;;;;;;23.92;47.27;101703.88;5051913;28;20052;-65
2021/10/25 12:10:38;;;;;;;8.52;2.60;;;;;;;23.78;47.03;101702.41;5056630;28;20037;-65
2021/10/25 12:13:10;;;;;;;9.05;2.88;;;;;;;23.67;47.40;101696.41;5056084;28;20040;-65
2021/10/25 12:15:42;;;;;;;9.30;2.03;;;;;;;23.64;47.37;101704.53;5052715;28;20048;-65
2021/10/25 12:18:19;;;;;;;9.80;2.25;;;;;;;23.57;47.19;101702.00;5062961;28;20068;-65
2021/10/25 12:20:47;;;;;;;7.68;2.42;;;;;;;23.72;47.14;101713.34;5070151;28;20047;-65
2021/10/25 12:23:16;;;;;;;13.43;2.40;;;;;;;23.90;46.97;101703.03;5071270;28;20386;-66
2021/10/25 12:25:46;;;;;;;12.82;2.28;;;;;;;23.91;46.67;101704.81;5071809;28;20447;-65
2021/10/25 12:28:17;;;;;;;12.77;2.58;;;;;;;23.85;46.96;101705.84;5072285;28;20036;-65
2021/10/25 12:30:45;;;;;;;9.93;2.40;;;;;;;23.67;46.75;101704.47;5070530;28;20033;-65
2021/10/25 12:33:14;;;;;;;12.00;2.45;;;;;;;23.56;47.21;101703.84;5070399;28;20047;-65
2021/10/25 12:35:43;;;;;;;10.40;2.10;;;;;;;23.58;47.44;101703.78;5061973;28;20044;-65
2021/10/25 12:38:15;;;;;;;11.30;2.90;;;;;;;23.42;47.16;101704.13;5057554;28;20033;-65
2021/10/25 12:40:45;;;;;;;6.50;2.22;;;;;;;23.24;47.52;101700.91;5059240;28;20048;-66
2021/10/25 12:43:13;;;;;;;8.95;2.72;;;;;;;23.17;47.87;101705.56;5063032;28;20032;-66
2021/10/25 12:45:42;;;;;;;12.82;2.80;;;;;;;23.10;48.05;101701.25;5054868;28;20037;-66
2021/10/25 12:48:12;;;;;;;12.75;2.17;;;;;;;23.00;48.20;101708.63;5071560;28;20038;-66
2021/10/25 12:50:46;;;;;;;15.63;2.92;;;;;;;22.94;48.52;101697.97;5067679;28;20036;-64
2021/10/25 12:53:14;;;;;;;11.68;2.80;;;;;;;22.81;48.96;101701.81;5058395;28;20045;-65
2021/10/25 12:55:53;;;;;;;10.13;2.47;;;;;;;22.71;49.40;101707.41;5062185;28;20052;-65